sensor_id;sensor_type;location;lat;lon;timestamp;P1;durP1;ratioP1;P2;durP2;ratioP2
72284;SDS011;60220;53.552;10.092;2023-04-10T00:01:39;36.42;;;19.70;;
72284;SDS011;60220;53.552;10.092;2023-04-10T00:04:05;37.10;;;18.80;;
72284;SDS011;60220;53.552;10.092;2023-04-10T00:06:32;38.70;;;20.23;;
72284;SDS011;60220;53.552;10.092;2023-04-10T00:09:00;43.47;;;20.85;;
72284;SDS011;60220;53.552;10.092;2023-04-10T00:11:26;35.83;;;19.10;;
72284;SDS011;60220;53.552;10.092;2023-04-10T00:13:54;37.83;;;19.40;;
72284;SDS011;60220;53.552;10.092;2023-04-10T00:16:21;37.08;;;19.98;;
72284;SDS011;60220;53.552;10.092;2023-04-10T00:18:47;37.85;;;19.55;;
72284;SDS011;60220;53.552;10.092;2023-04-10T00:21:14;35.17;;;19.02;;
72284;SDS011;60220;53.552;10.092;2023-04-10T00:23:41;37.45;;;19.67;;
72284;SDS011;60220;53.552;10.092;2023-04-10T00:26:09;35.88;;;18.75;;
72284;SDS011;60220;53.552;10.092;2023-04-10T00:28:36;39.03;;;20.17;;
72284;SDS011;60220;53.552;10.092;2023-04-10T00:31:03;36.13;;;20.08;;
72284;SDS011;60220;53.552;10.092;2023-04-10T00:33:30;38.33;;;19.10;;
72284;SDS011;60220;53.552;10.092;2023-04-10T00:35:56;38.75;;;20.80;;
72284;SDS011;60220;53.552;10.092;2023-04-10T00:38:23;40.08;;;20.02;;
72284;SDS011;60220;53.552;10.092;2023-04-10T00:40:50;40.42;;;20.60;;
72284;SDS011;60220;53.552;10.092;2023-04-10T00:43:18;41.85;;;21.40;;
72284;SDS011;60220;53.552;10.092;2023-04-10T00:45:48;39.70;;;19.52;;
72284;SDS011;60220;53.552;10.092;2023-04-10T00:48:17;34.03;;;19.67;;
72284;SDS011;60220;53.552;10.092;2023-04-10T00:50:46;35.80;;;20.45;;
72284;SDS011;60220;53.552;10.092;2023-04-10T00:53:13;37.00;;;19.27;;
72284;SDS011;60220;53.552;10.092;2023-04-10T00:55:39;42.13;;;20.67;;
72284;SDS011;60220;53.552;10.092;2023-04-10T00:58:06;40.13;;;19.63;;
72284;SDS011;60220;53.552;10.092;2023-04-10T01:00:34;42.58;;;21.08;;
72284;SDS011;60220;53.552;10.092;2023-04-10T01:03:03;40.75;;;22.00;;
72284;SDS011;60220;53.552;10.092;2023-04-10T01:05:31;40.38;;;21.40;;
72284;SDS011;60220;53.552;10.092;2023-04-10T01:08:07;37.53;;;20.13;;
72284;SDS011;60220;53.552;10.092;2023-04-10T01:10:44;44.20;;;20.88;;
72284;SDS011;60220;53.552;10.092;2023-04-10T01:13:19;38.70;;;21.30;;
72284;SDS011;60220;53.552;10.092;2023-04-10T01:15:53;42.17;;;21.77;;
72284;SDS011;60220;53.552;10.092;2023-04-10T01:18:25;39.42;;;20.48;;
72284;SDS011;60220;53.552;10.092;2023-04-10T01:20:58;37.10;;;20.33;;
72284;SDS011;60220;53.552;10.092;2023-04-10T01:23:41;46.40;;;22.13;;
72284;SDS011;60220;53.552;10.092;2023-04-10T01:26:25;41.30;;;20.48;;
72284;SDS011;60220;53.552;10.092;2023-04-10T01:29:08;37.08;;;20.75;;
72284;SDS011;60220;53.552;10.092;2023-04-10T01:31:38;44.35;;;21.77;;
72284;SDS011;60220;53.552;10.092;2023-04-10T01:34:09;39.83;;;21.70;;
72284;SDS011;60220;53.552;10.092;2023-04-10T01:36:45;40.08;;;19.40;;
72284;SDS011;60220;53.552;10.092;2023-04-10T01:39:17;45.45;;;23.10;;
72284;SDS011;60220;53.552;10.092;2023-04-10T01:41:45;38.63;;;20.30;;
72284;SDS011;60220;53.552;10.092;2023-04-10T01:44:17;42.30;;;20.50;;
72284;SDS011;60220;53.552;10.092;2023-04-10T01:46:47;37.75;;;20.27;;
72284;SDS011;60220;53.552;10.092;2023-04-10T01:49:15;39.20;;;21.60;;
72284;SDS011;60220;53.552;10.092;2023-04-10T01:51:44;39.58;;;20.38;;
72284;SDS011;60220;53.552;10.092;2023-04-10T01:54:11;38.28;;;20.17;;
72284;SDS011;60220;53.552;10.092;2023-04-10T01:56:38;40.70;;;20.05;;
72284;SDS011;60220;53.552;10.092;2023-04-10T01:59:06;40.28;;;20.58;;
72284;SDS011;60220;53.552;10.092;2023-04-10T02:01:37;38.92;;;21.10;;
72284;SDS011;60220;53.552;10.092;2023-04-10T02:04:04;39.08;;;20.77;;
72284;SDS011;60220;53.552;10.092;2023-04-10T02:06:34;41.95;;;20.08;;
72284;SDS011;60220;53.552;10.092;2023-04-10T02:09:09;41.20;;;20.80;;
72284;SDS011;60220;53.552;10.092;2023-04-10T02:11:43;42.28;;;21.33;;
72284;SDS011;60220;53.552;10.092;2023-04-10T02:14:15;38.90;;;19.38;;
72284;SDS011;60220;53.552;10.092;2023-04-10T02:16:47;44.05;;;19.88;;
72284;SDS011;60220;53.552;10.092;2023-04-10T02:19:18;40.25;;;20.35;;
72284;SDS011;60220;53.552;10.092;2023-04-10T02:21:46;35.90;;;19.45;;
72284;SDS011;60220;53.552;10.092;2023-04-10T02:24:15;34.58;;;19.15;;
72284;SDS011;60220;53.552;10.092;2023-04-10T02:26:45;42.17;;;19.40;;
72284;SDS011;60220;53.552;10.092;2023-04-10T02:29:12;39.88;;;20.55;;
72284;SDS011;60220;53.552;10.092;2023-04-10T02:31:39;35.47;;;19.27;;
72284;SDS011;60220;53.552;10.092;2023-04-10T02:34:09;41.10;;;21.08;;
72284;SDS011;60220;53.552;10.092;2023-04-10T02:36:36;42.90;;;20.88;;
72284;SDS011;60220;53.552;10.092;2023-04-10T02:39:06;39.58;;;19.52;;
72284;SDS011;60220;53.552;10.092;2023-04-10T02:41:33;43.20;;;21.60;;
72284;SDS011;60220;53.552;10.092;2023-04-10T02:44:02;39.30;;;19.05;;
72284;SDS011;60220;53.552;10.092;2023-04-10T02:46:32;35.97;;;19.40;;
72284;SDS011;60220;53.552;10.092;2023-04-10T02:48:59;35.53;;;19.00;;
72284;SDS011;60220;53.552;10.092;2023-04-10T02:51:27;45.90;;;20.92;;
72284;SDS011;60220;53.552;10.092;2023-04-10T02:53:57;36.88;;;19.80;;
72284;SDS011;60220;53.552;10.092;2023-04-10T02:56:24;39.25;;;20.65;;
72284;SDS011;60220;53.552;10.092;2023-04-10T02:58:51;38.88;;;20.15;;
72284;SDS011;60220;53.552;10.092;2023-04-10T03:01:17;42.80;;;22.40;;
72284;SDS011;60220;53.552;10.092;2023-04-10T03:03:47;39.22;;;21.08;;
72284;SDS011;60220;53.552;10.092;2023-04-10T03:06:13;38.50;;;19.15;;
72284;SDS011;60220;53.552;10.092;2023-04-10T03:08:42;38.42;;;19.33;;
72284;SDS011;60220;53.552;10.092;2023-04-10T03:11:08;38.95;;;20.38;;
72284;SDS011;60220;53.552;10.092;2023-04-10T03:13:35;39.38;;;20.38;;
72284;SDS011;60220;53.552;10.092;2023-04-10T03:16:02;37.28;;;18.67;;
72284;SDS011;60220;53.552;10.092;2023-04-10T03:18:28;39.28;;;20.63;;
72284;SDS011;60220;53.552;10.092;2023-04-10T03:20:56;37.83;;;19.70;;
72284;SDS011;60220;53.552;10.092;2023-04-10T03:23:22;40.25;;;21.20;;
72284;SDS011;60220;53.552;10.092;2023-04-10T03:25:50;35.40;;;19.55;;
72284;SDS011;60220;53.552;10.092;2023-04-10T03:28:18;36.05;;;20.40;;
72284;SDS011;60220;53.552;10.092;2023-04-10T03:30:45;38.13;;;21.00;;
72284;SDS011;60220;53.552;10.092;2023-04-10T03:33:12;42.15;;;21.45;;
72284;SDS011;60220;53.552;10.092;2023-04-10T03:35:38;42.03;;;20.85;;
72284;SDS011;60220;53.552;10.092;2023-04-10T03:38:05;40.63;;;20.80;;
72284;SDS011;60220;53.552;10.092;2023-04-10T03:40:32;37.92;;;19.13;;
72284;SDS011;60220;53.552;10.092;2023-04-10T03:43:01;35.70;;;19.83;;
72284;SDS011;60220;53.552;10.092;2023-04-10T03:45:27;36.83;;;20.52;;
72284;SDS011;60220;53.552;10.092;2023-04-10T03:47:54;32.15;;;19.50;;
72284;SDS011;60220;53.552;10.092;2023-04-10T03:50:21;37.22;;;20.13;;
72284;SDS011;60220;53.552;10.092;2023-04-10T03:52:47;38.90;;;19.90;;
72284;SDS011;60220;53.552;10.092;2023-04-10T03:55:14;50.55;;;26.73;;
72284;SDS011;60220;53.552;10.092;2023-04-10T03:57:43;39.80;;;21.40;;
72284;SDS011;60220;53.552;10.092;2023-04-10T04:00:14;38.63;;;20.98;;
72284;SDS011;60220;53.552;10.092;2023-04-10T04:02:41;37.70;;;19.98;;
72284;SDS011;60220;53.552;10.092;2023-04-10T04:05:08;38.97;;;20.75;;
72284;SDS011;60220;53.552;10.092;2023-04-10T04:07:35;38.30;;;20.50;;
72284;SDS011;60220;53.552;10.092;2023-04-10T04:10:03;39.67;;;20.10;;
72284;SDS011;60220;53.552;10.092;2023-04-10T04:12:30;41.22;;;20.23;;
72284;SDS011;60220;53.552;10.092;2023-04-10T04:14:56;42.58;;;21.25;;
72284;SDS011;60220;53.552;10.092;2023-04-10T04:17:24;36.28;;;19.92;;
72284;SDS011;60220;53.552;10.092;2023-04-10T04:19:53;38.67;;;20.30;;
72284;SDS011;60220;53.552;10.092;2023-04-10T04:22:22;43.53;;;21.80;;
72284;SDS011;60220;53.552;10.092;2023-04-10T04:24:48;36.35;;;19.63;;
72284;SDS011;60220;53.552;10.092;2023-04-10T04:27:18;43.63;;;20.15;;
72284;SDS011;60220;53.552;10.092;2023-04-10T04:29:48;34.65;;;19.65;;
72284;SDS011;60220;53.552;10.092;2023-04-10T04:32:15;41.75;;;21.33;;
72284;SDS011;60220;53.552;10.092;2023-04-10T04:34:43;40.20;;;21.02;;
72284;SDS011;60220;53.552;10.092;2023-04-10T04:37:09;35.85;;;19.90;;
72284;SDS011;60220;53.552;10.092;2023-04-10T04:39:36;37.97;;;20.60;;
72284;SDS011;60220;53.552;10.092;2023-04-10T04:42:03;41.65;;;20.90;;
72284;SDS011;60220;53.552;10.092;2023-04-10T04:44:31;39.20;;;20.25;;
72284;SDS011;60220;53.552;10.092;2023-04-10T04:46:58;39.88;;;20.30;;
72284;SDS011;60220;53.552;10.092;2023-04-10T04:49:25;38.53;;;20.40;;
72284;SDS011;60220;53.552;10.092;2023-04-10T04:51:53;42.55;;;21.85;;
72284;SDS011;60220;53.552;10.092;2023-04-10T04:54:20;45.67;;;21.15;;
72284;SDS011;60220;53.552;10.092;2023-04-10T04:56:46;36.00;;;19.38;;
72284;SDS011;60220;53.552;10.092;2023-04-10T04:59:13;40.33;;;21.83;;
72284;SDS011;60220;53.552;10.092;2023-04-10T05:01:40;39.00;;;20.73;;
72284;SDS011;60220;53.552;10.092;2023-04-10T05:04:06;33.30;;;20.55;;
72284;SDS011;60220;53.552;10.092;2023-04-10T05:06:35;39.13;;;22.10;;
72284;SDS011;60220;53.552;10.092;2023-04-10T05:09:04;36.60;;;20.98;;
72284;SDS011;60220;53.552;10.092;2023-04-10T05:11:30;38.33;;;19.92;;
72284;SDS011;60220;53.552;10.092;2023-04-10T05:13:59;39.78;;;21.20;;
72284;SDS011;60220;53.552;10.092;2023-04-10T05:16:26;36.63;;;20.05;;
72284;SDS011;60220;53.552;10.092;2023-04-10T05:18:53;37.35;;;20.00;;
72284;SDS011;60220;53.552;10.092;2023-04-10T05:21:20;42.30;;;22.10;;
72284;SDS011;60220;53.552;10.092;2023-04-10T05:23:49;39.65;;;19.55;;
72284;SDS011;60220;53.552;10.092;2023-04-10T05:26:17;38.50;;;20.60;;
72284;SDS011;60220;53.552;10.092;2023-04-10T05:28:44;39.95;;;20.67;;
72284;SDS011;60220;53.552;10.092;2023-04-10T05:31:10;37.55;;;20.23;;
72284;SDS011;60220;53.552;10.092;2023-04-10T05:33:37;38.65;;;20.10;;
72284;SDS011;60220;53.552;10.092;2023-04-10T05:36:04;35.55;;;20.30;;
72284;SDS011;60220;53.552;10.092;2023-04-10T05:38:33;38.75;;;20.42;;
72284;SDS011;60220;53.552;10.092;2023-04-10T05:40:59;35.03;;;19.05;;
72284;SDS011;60220;53.552;10.092;2023-04-10T05:43:27;36.50;;;19.02;;
72284;SDS011;60220;53.552;10.092;2023-04-10T05:45:54;37.97;;;19.67;;
72284;SDS011;60220;53.552;10.092;2023-04-10T05:48:21;33.63;;;18.65;;
72284;SDS011;60220;53.552;10.092;2023-04-10T05:50:50;37.80;;;20.67;;
72284;SDS011;60220;53.552;10.092;2023-04-10T05:53:17;34.58;;;19.13;;
72284;SDS011;60220;53.552;10.092;2023-04-10T05:55:48;33.08;;;18.88;;
72284;SDS011;60220;53.552;10.092;2023-04-10T05:58:16;36.67;;;19.23;;
72284;SDS011;60220;53.552;10.092;2023-04-10T06:00:46;36.88;;;21.10;;
72284;SDS011;60220;53.552;10.092;2023-04-10T06:03:15;35.80;;;20.58;;
72284;SDS011;60220;53.552;10.092;2023-04-10T06:05:42;32.38;;;19.23;;
72284;SDS011;60220;53.552;10.092;2023-04-10T06:08:08;35.53;;;18.73;;
72284;SDS011;60220;53.552;10.092;2023-04-10T06:10:35;37.92;;;18.40;;
72284;SDS011;60220;53.552;10.092;2023-04-10T06:13:02;35.75;;;19.30;;
72284;SDS011;60220;53.552;10.092;2023-04-10T06:15:29;34.90;;;18.17;;
72284;SDS011;60220;53.552;10.092;2023-04-10T06:17:57;33.85;;;17.92;;
72284;SDS011;60220;53.552;10.092;2023-04-10T06:20:23;36.92;;;18.30;;
72284;SDS011;60220;53.552;10.092;2023-04-10T06:22:52;38.47;;;20.30;;
72284;SDS011;60220;53.552;10.092;2023-04-10T06:25:19;32.90;;;18.67;;
72284;SDS011;60220;53.552;10.092;2023-04-10T06:27:47;32.90;;;19.40;;
72284;SDS011;60220;53.552;10.092;2023-04-10T06:30:13;31.75;;;18.75;;
72284;SDS011;60220;53.552;10.092;2023-04-10T06:32:40;36.53;;;20.10;;
72284;SDS011;60220;53.552;10.092;2023-04-10T06:35:08;34.03;;;19.10;;
72284;SDS011;60220;53.552;10.092;2023-04-10T06:37:35;31.13;;;18.50;;
72284;SDS011;60220;53.552;10.092;2023-04-10T06:40:03;37.45;;;20.08;;
72284;SDS011;60220;53.552;10.092;2023-04-10T06:42:31;35.50;;;19.38;;
72284;SDS011;60220;53.552;10.092;2023-04-10T06:44:58;34.05;;;18.13;;
72284;SDS011;60220;53.552;10.092;2023-04-10T06:47:25;33.65;;;20.17;;
72284;SDS011;60220;53.552;10.092;2023-04-10T06:49:51;32.15;;;18.48;;
72284;SDS011;60220;53.552;10.092;2023-04-10T06:52:22;34.22;;;19.30;;
72284;SDS011;60220;53.552;10.092;2023-04-10T06:54:48;36.88;;;19.48;;
72284;SDS011;60220;53.552;10.092;2023-04-10T06:57:15;35.58;;;18.88;;
72284;SDS011;60220;53.552;10.092;2023-04-10T06:59:43;32.47;;;18.48;;
72284;SDS011;60220;53.552;10.092;2023-04-10T07:02:09;30.00;;;19.63;;
72284;SDS011;60220;53.552;10.092;2023-04-10T07:04:36;34.00;;;19.27;;
72284;SDS011;60220;53.552;10.092;2023-04-10T07:07:03;36.38;;;19.42;;
72284;SDS011;60220;53.552;10.092;2023-04-10T07:09:35;29.88;;;18.30;;
72284;SDS011;60220;53.552;10.092;2023-04-10T07:12:02;31.65;;;18.40;;
72284;SDS011;60220;53.552;10.092;2023-04-10T07:14:29;34.33;;;17.17;;
72284;SDS011;60220;53.552;10.092;2023-04-10T07:16:58;29.27;;;16.23;;
72284;SDS011;60220;53.552;10.092;2023-04-10T07:19:24;29.20;;;16.83;;
72284;SDS011;60220;53.552;10.092;2023-04-10T07:21:51;33.85;;;18.65;;
72284;SDS011;60220;53.552;10.092;2023-04-10T07:24:18;29.35;;;17.55;;
72284;SDS011;60220;53.552;10.092;2023-04-10T07:26:46;31.80;;;16.38;;
72284;SDS011;60220;53.552;10.092;2023-04-10T07:29:13;27.92;;;17.40;;
72284;SDS011;60220;53.552;10.092;2023-04-10T07:31:40;30.17;;;17.42;;
72284;SDS011;60220;53.552;10.092;2023-04-10T07:34:06;30.15;;;18.20;;
72284;SDS011;60220;53.552;10.092;2023-04-10T07:36:33;27.65;;;17.05;;
72284;SDS011;60220;53.552;10.092;2023-04-10T07:39:00;30.80;;;17.48;;
72284;SDS011;60220;53.552;10.092;2023-04-10T07:41:27;29.08;;;17.08;;
72284;SDS011;60220;53.552;10.092;2023-04-10T07:43:55;28.15;;;17.13;;
72284;SDS011;60220;53.552;10.092;2023-04-10T07:46:21;28.80;;;17.23;;
72284;SDS011;60220;53.552;10.092;2023-04-10T07:48:48;31.30;;;17.45;;
72284;SDS011;60220;53.552;10.092;2023-04-10T07:51:15;27.83;;;16.70;;
72284;SDS011;60220;53.552;10.092;2023-04-10T07:53:42;29.73;;;17.75;;
72284;SDS011;60220;53.552;10.092;2023-04-10T07:56:13;29.38;;;16.98;;
72284;SDS011;60220;53.552;10.092;2023-04-10T07:58:41;27.98;;;17.27;;
72284;SDS011;60220;53.552;10.092;2023-04-10T08:01:09;32.72;;;17.45;;
72284;SDS011;60220;53.552;10.092;2023-04-10T08:03:36;31.73;;;18.75;;
72284;SDS011;60220;53.552;10.092;2023-04-10T08:06:04;25.55;;;16.02;;
72284;SDS011;60220;53.552;10.092;2023-04-10T08:08:33;29.20;;;16.52;;
72284;SDS011;60220;53.552;10.092;2023-04-10T08:11:01;28.33;;;17.80;;
72284;SDS011;60220;53.552;10.092;2023-04-10T08:13:27;28.00;;;17.52;;
72284;SDS011;60220;53.552;10.092;2023-04-10T08:15:54;25.05;;;16.55;;
72284;SDS011;60220;53.552;10.092;2023-04-10T08:18:22;26.65;;;17.65;;
72284;SDS011;60220;53.552;10.092;2023-04-10T08:20:49;26.25;;;15.02;;
72284;SDS011;60220;53.552;10.092;2023-04-10T08:23:18;27.05;;;17.67;;
72284;SDS011;60220;53.552;10.092;2023-04-10T08:25:45;25.27;;;16.27;;
72284;SDS011;60220;53.552;10.092;2023-04-10T08:28:12;24.17;;;14.68;;
72284;SDS011;60220;53.552;10.092;2023-04-10T08:30:39;22.95;;;15.70;;
72284;SDS011;60220;53.552;10.092;2023-04-10T08:33:05;25.85;;;15.75;;
72284;SDS011;60220;53.552;10.092;2023-04-10T08:35:34;26.08;;;16.48;;
72284;SDS011;60220;53.552;10.092;2023-04-10T08:38:00;24.30;;;15.13;;
72284;SDS011;60220;53.552;10.092;2023-04-10T08:40:27;23.85;;;15.18;;
72284;SDS011;60220;53.552;10.092;2023-04-10T08:42:54;25.90;;;15.77;;
72284;SDS011;60220;53.552;10.092;2023-04-10T08:45:23;22.95;;;14.20;;
72284;SDS011;60220;53.552;10.092;2023-04-10T08:47:50;21.08;;;14.57;;
72284;SDS011;60220;53.552;10.092;2023-04-10T08:50:20;22.80;;;14.82;;
72284;SDS011;60220;53.552;10.092;2023-04-10T08:52:49;21.83;;;13.75;;
72284;SDS011;60220;53.552;10.092;2023-04-10T08:55:17;23.67;;;14.48;;
72284;SDS011;60220;53.552;10.092;2023-04-10T08:57:45;23.05;;;14.98;;
72284;SDS011;60220;53.552;10.092;2023-04-10T09:00:13;24.08;;;14.70;;
72284;SDS011;60220;53.552;10.092;2023-04-10T09:02:40;20.35;;;14.07;;
72284;SDS011;60220;53.552;10.092;2023-04-10T09:05:10;22.40;;;14.52;;
72284;SDS011;60220;53.552;10.092;2023-04-10T09:07:37;22.45;;;14.45;;
72284;SDS011;60220;53.552;10.092;2023-04-10T09:10:06;19.33;;;12.73;;
72284;SDS011;60220;53.552;10.092;2023-04-10T09:12:42;20.23;;;12.00;;
72284;SDS011;60220;53.552;10.092;2023-04-10T09:15:12;17.42;;;11.65;;
72284;SDS011;60220;53.552;10.092;2023-04-10T09:17:53;19.85;;;13.52;;
72284;SDS011;60220;53.552;10.092;2023-04-10T09:20:21;18.45;;;12.70;;
72284;SDS011;60220;53.552;10.092;2023-04-10T09:22:50;20.20;;;13.82;;
72284;SDS011;60220;53.552;10.092;2023-04-10T09:25:29;23.55;;;13.48;;
72284;SDS011;60220;53.552;10.092;2023-04-10T09:28:00;19.58;;;12.80;;
72284;SDS011;60220;53.552;10.092;2023-04-10T09:30:31;19.08;;;12.68;;
72284;SDS011;60220;53.552;10.092;2023-04-10T09:32:59;18.88;;;12.52;;
72284;SDS011;60220;53.552;10.092;2023-04-10T09:35:34;17.40;;;12.32;;
72284;SDS011;60220;53.552;10.092;2023-04-10T09:38:14;18.45;;;12.27;;
72284;SDS011;60220;53.552;10.092;2023-04-10T09:40:43;22.42;;;13.13;;
72284;SDS011;60220;53.552;10.092;2023-04-10T09:43:15;19.20;;;12.27;;
72284;SDS011;60220;53.552;10.092;2023-04-10T09:45:48;17.10;;;11.13;;
72284;SDS011;60220;53.552;10.092;2023-04-10T09:48:16;17.75;;;11.68;;
72284;SDS011;60220;53.552;10.092;2023-04-10T09:50:43;18.20;;;12.75;;
72284;SDS011;60220;53.552;10.092;2023-04-10T09:53:11;17.73;;;11.68;;
72284;SDS011;60220;53.552;10.092;2023-04-10T09:55:42;17.25;;;10.98;;
72284;SDS011;60220;53.552;10.092;2023-04-10T09:58:11;13.15;;;9.27;;
72284;SDS011;60220;53.552;10.092;2023-04-10T10:00:39;15.82;;;9.35;;
72284;SDS011;60220;53.552;10.092;2023-04-10T10:03:07;14.90;;;9.95;;
72284;SDS011;60220;53.552;10.092;2023-04-10T10:05:39;12.50;;;9.52;;
72284;SDS011;60220;53.552;10.092;2023-04-10T10:08:08;14.30;;;9.63;;
72284;SDS011;60220;53.552;10.092;2023-04-10T10:10:36;13.00;;;8.35;;
72284;SDS011;60220;53.552;10.092;2023-04-10T10:13:07;12.10;;;8.25;;
72284;SDS011;60220;53.552;10.092;2023-04-10T10:15:37;19.63;;;8.00;;
72284;SDS011;60220;53.552;10.092;2023-04-10T10:18:14;12.45;;;8.48;;
72284;SDS011;60220;53.552;10.092;2023-04-10T10:20:47;14.50;;;10.10;;
72284;SDS011;60220;53.552;10.092;2023-04-10T10:23:15;13.73;;;9.18;;
72284;SDS011;60220;53.552;10.092;2023-04-10T10:25:45;12.05;;;8.43;;
72284;SDS011;60220;53.552;10.092;2023-04-10T10:28:13;11.85;;;7.97;;
72284;SDS011;60220;53.552;10.092;2023-04-10T10:30:41;11.93;;;8.43;;
72284;SDS011;60220;53.552;10.092;2023-04-10T10:33:10;13.43;;;8.60;;
72284;SDS011;60220;53.552;10.092;2023-04-10T10:35:39;12.57;;;8.10;;
72284;SDS011;60220;53.552;10.092;2023-04-10T10:38:06;10.65;;;6.88;;
72284;SDS011;60220;53.552;10.092;2023-04-10T10:40:37;10.63;;;6.78;;
72284;SDS011;60220;53.552;10.092;2023-04-10T10:43:11;7.95;;;6.25;;
72284;SDS011;60220;53.552;10.092;2023-04-10T10:45:45;9.35;;;6.00;;
72284;SDS011;60220;53.552;10.092;2023-04-10T10:48:17;10.82;;;6.45;;
72284;SDS011;60220;53.552;10.092;2023-04-10T10:50:49;9.02;;;6.38;;
72284;SDS011;60220;53.552;10.092;2023-04-10T10:53:34;10.23;;;6.55;;
72284;SDS011;60220;53.552;10.092;2023-04-10T10:59:03;9.45;;;6.55;;
72284;SDS011;60220;53.552;10.092;2023-04-10T11:01:30;10.40;;;6.30;;
72284;SDS011;60220;53.552;10.092;2023-04-10T11:03:56;11.88;;;8.30;;
72284;SDS011;60220;53.552;10.092;2023-04-10T11:12:17;9.80;;;6.70;;
72284;SDS011;60220;53.552;10.092;2023-04-10T11:14:55;10.13;;;6.97;;
72284;SDS011;60220;53.552;10.092;2023-04-10T11:20:15;8.85;;;6.72;;
72284;SDS011;60220;53.552;10.092;2023-04-10T11:25:47;9.95;;;6.85;;
72284;SDS011;60220;53.552;10.092;2023-04-10T11:28:32;11.75;;;5.95;;
72284;SDS011;60220;53.552;10.092;2023-04-10T11:31:17;8.98;;;6.32;;
72284;SDS011;60220;53.552;10.092;2023-04-10T11:33:46;10.10;;;6.55;;
72284;SDS011;60220;53.552;10.092;2023-04-10T11:36:14;10.20;;;5.53;;
72284;SDS011;60220;53.552;10.092;2023-04-10T11:38:52;9.40;;;5.82;;
72284;SDS011;60220;53.552;10.092;2023-04-10T11:41:25;10.55;;;6.60;;
72284;SDS011;60220;53.552;10.092;2023-04-10T11:43:56;7.25;;;5.20;;
72284;SDS011;60220;53.552;10.092;2023-04-10T11:46:25;7.65;;;5.18;;
72284;SDS011;60220;53.552;10.092;2023-04-10T11:48:53;10.90;;;6.13;;
72284;SDS011;60220;53.552;10.092;2023-04-10T11:51:21;5.97;;;4.65;;
72284;SDS011;60220;53.552;10.092;2023-04-10T11:53:48;7.07;;;5.05;;
72284;SDS011;60220;53.552;10.092;2023-04-10T11:56:15;7.28;;;5.18;;
72284;SDS011;60220;53.552;10.092;2023-04-10T11:58:45;8.80;;;4.97;;
72284;SDS011;60220;53.552;10.092;2023-04-10T12:01:14;8.07;;;5.43;;
72284;SDS011;60220;53.552;10.092;2023-04-10T12:03:42;9.52;;;5.47;;
72284;SDS011;60220;53.552;10.092;2023-04-10T12:06:12;8.05;;;5.43;;
72284;SDS011;60220;53.552;10.092;2023-04-10T12:08:41;7.47;;;5.40;;
72284;SDS011;60220;53.552;10.092;2023-04-10T12:11:10;6.90;;;5.43;;
72284;SDS011;60220;53.552;10.092;2023-04-10T12:13:37;9.68;;;5.63;;
72284;SDS011;60220;53.552;10.092;2023-04-10T12:16:05;6.80;;;4.95;;
72284;SDS011;60220;53.552;10.092;2023-04-10T12:18:36;8.10;;;4.90;;
72284;SDS011;60220;53.552;10.092;2023-04-10T12:21:05;6.75;;;4.55;;
72284;SDS011;60220;53.552;10.092;2023-04-10T12:23:33;9.25;;;4.78;;
72284;SDS011;60220;53.552;10.092;2023-04-10T12:26:07;8.27;;;4.70;;
72284;SDS011;60220;53.552;10.092;2023-04-10T12:28:36;5.80;;;4.25;;
72284;SDS011;60220;53.552;10.092;2023-04-10T12:31:06;7.43;;;4.07;;
72284;SDS011;60220;53.552;10.092;2023-04-10T12:33:33;5.50;;;4.00;;
72284;SDS011;60220;53.552;10.092;2023-04-10T12:36:00;7.05;;;4.43;;
72284;SDS011;60220;53.552;10.092;2023-04-10T12:38:41;4.82;;;3.90;;
72284;SDS011;60220;53.552;10.092;2023-04-10T12:41:09;5.28;;;4.13;;
72284;SDS011;60220;53.552;10.092;2023-04-10T12:43:37;7.82;;;4.47;;
72284;SDS011;60220;53.552;10.092;2023-04-10T12:46:06;5.60;;;4.07;;
72284;SDS011;60220;53.552;10.092;2023-04-10T12:48:35;6.35;;;4.55;;
72284;SDS011;60220;53.552;10.092;2023-04-10T12:51:01;5.30;;;3.97;;
72284;SDS011;60220;53.552;10.092;2023-04-10T12:53:31;6.43;;;4.43;;
72284;SDS011;60220;53.552;10.092;2023-04-10T12:56:12;6.57;;;4.55;;
72284;SDS011;60220;53.552;10.092;2023-04-10T12:58:39;5.18;;;4.03;;
72284;SDS011;60220;53.552;10.092;2023-04-10T13:01:07;6.78;;;4.03;;
72284;SDS011;60220;53.552;10.092;2023-04-10T13:03:35;5.85;;;3.85;;
72284;SDS011;60220;53.552;10.092;2023-04-10T13:06:05;6.65;;;4.40;;
72284;SDS011;60220;53.552;10.092;2023-04-10T13:08:32;7.60;;;4.53;;
72284;SDS011;60220;53.552;10.092;2023-04-10T13:11:01;6.47;;;4.40;;
72284;SDS011;60220;53.552;10.092;2023-04-10T13:13:28;4.82;;;3.47;;
72284;SDS011;60220;53.552;10.092;2023-04-10T13:15:56;4.85;;;3.72;;
72284;SDS011;60220;53.552;10.092;2023-04-10T13:18:23;4.25;;;3.30;;
72284;SDS011;60220;53.552;10.092;2023-04-10T13:20:50;5.18;;;3.08;;
72284;SDS011;60220;53.552;10.092;2023-04-10T13:23:17;6.97;;;3.35;;
72284;SDS011;60220;53.552;10.092;2023-04-10T13:25:44;4.55;;;3.30;;
72284;SDS011;60220;53.552;10.092;2023-04-10T13:28:12;5.57;;;2.95;;
72284;SDS011;60220;53.552;10.092;2023-04-10T13:30:42;3.85;;;2.95;;
72284;SDS011;60220;53.552;10.092;2023-04-10T13:33:08;8.05;;;3.45;;
72284;SDS011;60220;53.552;10.092;2023-04-10T13:35:35;6.53;;;3.05;;
72284;SDS011;60220;53.552;10.092;2023-04-10T13:38:02;4.32;;;3.33;;
72284;SDS011;60220;53.552;10.092;2023-04-10T13:40:29;4.80;;;3.78;;
72284;SDS011;60220;53.552;10.092;2023-04-10T13:42:56;3.53;;;2.65;;
72284;SDS011;60220;53.552;10.092;2023-04-10T13:45:26;4.13;;;3.00;;
72284;SDS011;60220;53.552;10.092;2023-04-10T13:47:54;5.32;;;3.75;;
72284;SDS011;60220;53.552;10.092;2023-04-10T13:50:21;7.18;;;3.65;;
72284;SDS011;60220;53.552;10.092;2023-04-10T13:52:47;7.32;;;3.50;;
72284;SDS011;60220;53.552;10.092;2023-04-10T13:55:14;4.53;;;3.30;;
72284;SDS011;60220;53.552;10.092;2023-04-10T13:57:41;5.50;;;3.80;;
72284;SDS011;60220;53.552;10.092;2023-04-10T14:00:10;7.47;;;4.07;;
72284;SDS011;60220;53.552;10.092;2023-04-10T14:02:41;6.63;;;4.40;;
72284;SDS011;60220;53.552;10.092;2023-04-10T14:05:08;7.32;;;5.20;;
72284;SDS011;60220;53.552;10.092;2023-04-10T14:07:35;8.60;;;4.85;;
72284;SDS011;60220;53.552;10.092;2023-04-10T14:10:02;6.38;;;4.65;;
72284;SDS011;60220;53.552;10.092;2023-04-10T14:12:29;9.15;;;4.65;;
72284;SDS011;60220;53.552;10.092;2023-04-10T14:14:56;6.45;;;4.65;;
72284;SDS011;60220;53.552;10.092;2023-04-10T14:17:23;8.07;;;4.80;;
72284;SDS011;60220;53.552;10.092;2023-04-10T14:19:51;7.32;;;5.30;;
72284;SDS011;60220;53.552;10.092;2023-04-10T14:22:18;7.78;;;4.60;;
72284;SDS011;60220;53.552;10.092;2023-04-10T14:24:47;8.55;;;5.78;;
72284;SDS011;60220;53.552;10.092;2023-04-10T14:27:13;7.57;;;5.35;;
72284;SDS011;60220;53.552;10.092;2023-04-10T14:29:41;7.05;;;5.25;;
72284;SDS011;60220;53.552;10.092;2023-04-10T14:32:07;8.63;;;5.95;;
72284;SDS011;60220;53.552;10.092;2023-04-10T14:34:34;8.55;;;5.25;;
72284;SDS011;60220;53.552;10.092;2023-04-10T14:37:02;9.10;;;5.43;;
72284;SDS011;60220;53.552;10.092;2023-04-10T14:39:31;8.15;;;5.50;;